<?xml version='1.0' encoding='UTF-8'?><gpx version="1.1" creator="JPX - https://github.com/jenetics/jpx" xmlns="http://www.topografix.com/GPX/1/1"><trk><trkseg><trkpt lat="42.576498080277915" lon="13.589010938612141"><ele>327.99999999999994</ele><time>2026-03-26T06:46:48Z</time></trkpt><trkpt lat="42.576485805218375" lon="13.588924410871018"><ele>328.0</ele><time>2026-03-26T06:46:54Z</time></trkpt><trkpt lat="42.57650231901628" lon="13.588837688925015"><ele>328.0</ele><time>2026-03-26T06:47:03.999Z</time></trkpt><trkpt lat="42.57655132625829" lon="13.588782851061431"><ele>328.0</ele><time>2026-03-26T06:47:13.999Z</time></trkpt><trkpt lat="42.576597872501324" lon="13.588707619120855"><ele>328.0</ele><time>2026-03-26T06:47:21.999Z</time></trkpt><trkpt lat="42.57663385513833" lon="13.588632047649273"><ele>327.99999999999994</ele><time>2026-03-26T06:47:27.999Z</time></trkpt><trkpt lat="42.576648452003525" lon="13.58854609038686"><ele>328.0</ele><time>2026-03-26T06:47:32.999Z</time></trkpt><trkpt lat="42.576623724535025" lon="13.588457335413306"><ele>326.1428571428571</ele><time>2026-03-26T06:47:37.999Z</time></trkpt><trkpt lat="42.57659191633984" lon="13.58837931036746"><ele>324.2857142857143</ele><time>2026-03-26T06:47:42.999Z</time></trkpt><trkpt lat="42.576564652567555" lon="13.588286220594412"><ele>322.42857142857144</ele><time>2026-03-26T06:47:48.998Z</time></trkpt><trkpt lat="42.57653328699781" lon="13.588196603973936"><ele>320.57142857142856</ele><time>2026-03-26T06:47:54.998Z</time></trkpt><trkpt lat="42.57650803567389" lon="13.588111954447367"><ele>318.7142857142857</ele><time>2026-03-26T06:47:59.998Z</time></trkpt><trkpt lat="42.576482748002235" lon="13.588020866239425"><ele>316.85714285714283</ele><time>2026-03-26T06:48:05.998Z</time></trkpt><trkpt lat="42.57646349774544" lon="13.587937225502552"><ele>315.0</ele><time>2026-03-26T06:48:10.998Z</time></trkpt><trkpt lat="42.57642854277127" lon="13.587852462044085"><ele>314.42857142857144</ele><time>2026-03-26T06:48:16.998Z</time></trkpt><trkpt lat="42.57639682715855" lon="13.587777636373206"><ele>313.8571428571429</ele><time>2026-03-26T06:48:21.998Z</time></trkpt><trkpt lat="42.576354329698546" lon="13.58769523023042"><ele>313.2857142857143</ele><time>2026-03-26T06:48:27.998Z</time></trkpt><trkpt lat="42.576301988933096" lon="13.587622470413894"><ele>312.7142857142857</ele><time>2026-03-26T06:48:34Z</time></trkpt><trkpt lat="42.5762517313652" lon="13.587547941623768"><ele>312.14285714285717</ele><time>2026-03-26T06:48:40Z</time></trkpt><trkpt lat="42.576205999736295" lon="13.587467771349614"><ele>311.57142857142856</ele><time>2026-03-26T06:48:46Z</time></trkpt><trkpt lat="42.57616821440569" lon="13.587390704768836"><ele>311.0</ele><time>2026-03-26T06:48:52Z</time></trkpt><trkpt lat="42.57613523140026" lon="13.58731725617109"><ele>337.0</ele><time>2026-03-26T06:48:57Z</time></trkpt><trkpt lat="42.576088876212424" lon="13.587239667551884"><ele>337.0</ele><time>2026-03-26T06:49:03Z</time></trkpt><trkpt lat="42.57603725365673" lon="13.587165447597219"><ele>337.0</ele><time>2026-03-26T06:49:09Z</time></trkpt></trkseg></trk></gpx>